createdAt,value
2023-05-12T00:01:11.152Z,89.10
2023-05-12T00:03:40.871Z,89.62
2023-05-12T00:06:11.602Z,89.72
2023-05-12T00:08:41.329Z,89.54
2023-05-12T00:11:11.345Z,89.46
2023-05-12T00:13:45.685Z,90.13
2023-05-12T00:16:17.744Z,90.86
2023-05-12T00:18:47.546Z,90.18
2023-05-12T00:21:17.293Z,89.54
2023-05-12T00:23:46.887Z,89.35
2023-05-12T00:26:17.687Z,89.29
2023-05-12T00:28:50.258Z,90.09
2023-05-12T00:31:19.921Z,89.62
2023-05-12T00:33:49.489Z,88.67
2023-05-12T00:36:19.286Z,89.03
2023-05-12T00:38:48.699Z,88.69
2023-05-12T00:41:18.121Z,88.71
2023-05-12T00:43:50.219Z,89.28
2023-05-12T00:46:20.225Z,88.98
2023-05-12T00:48:50.116Z,88.64
2023-05-12T00:51:19.986Z,88.81
2023-05-12T00:53:51.163Z,88.93
2023-05-12T00:56:22.017Z,89.17
2023-05-12T00:58:54.033Z,89.30
2023-05-12T01:01:23.838Z,88.86
2023-05-12T01:03:53.217Z,89.03
2023-05-12T01:06:30.025Z,88.82
2023-05-12T01:09:00.687Z,89.33
2023-05-12T01:11:30.080Z,89.37
2023-05-12T01:14:02.012Z,89.08
2023-05-12T01:16:39.046Z,88.71
2023-05-12T01:19:13.044Z,89.22
2023-05-12T01:21:42.483Z,90.17
2023-05-12T01:24:14.843Z,89.69
2023-05-12T01:26:46.897Z,89.46
2023-05-12T01:29:16.324Z,88.85
2023-05-12T01:31:45.915Z,89.59
2023-05-12T01:34:18.630Z,89.42
2023-05-12T01:36:48.080Z,88.95
2023-05-12T01:39:17.478Z,88.62
2023-05-12T01:41:49.431Z,88.69
2023-05-12T01:44:18.769Z,88.62
2023-05-12T01:46:49.597Z,88.52
2023-05-12T01:49:19.085Z,88.35
2023-05-12T01:51:48.453Z,88.40
2023-05-12T01:54:17.816Z,89.11
2023-05-12T01:56:49.883Z,88.56
2023-05-12T01:59:19.330Z,88.43
2023-05-12T02:01:48.792Z,88.33
2023-05-12T02:04:18.181Z,88.66
2023-05-12T02:06:47.870Z,88.38
2023-05-12T02:09:17.379Z,88.10
2023-05-12T02:11:49.555Z,88.50
2023-05-12T02:14:18.979Z,88.41
2023-05-12T02:16:52.668Z,88.10
2023-05-12T02:19:22.277Z,87.98
2023-05-12T02:21:51.841Z,88.04
2023-05-12T02:24:21.453Z,87.97
2023-05-12T02:26:53.458Z,87.98
2023-05-12T02:29:23.306Z,88.21
2023-05-12T02:31:52.765Z,87.82
2023-05-12T02:34:22.423Z,87.50
2023-05-12T02:36:52.513Z,87.83
2023-05-12T02:39:22.261Z,87.68
2023-05-12T02:41:54.556Z,87.50
2023-05-12T02:44:24.518Z,87.64
2023-05-12T02:46:53.978Z,87.91
2023-05-12T02:49:23.379Z,87.01
2023-05-12T02:51:52.836Z,87.33
2023-05-12T02:54:22.385Z,87.66
2023-05-12T02:56:54.760Z,88.04
2023-05-12T02:59:24.190Z,88.52
2023-05-12T03:01:53.661Z,87.70
2023-05-12T03:04:23.287Z,87.76
2023-05-12T03:06:52.854Z,87.65
2023-05-12T03:09:22.273Z,87.46
2023-05-12T03:11:54.301Z,87.65
2023-05-12T03:14:23.732Z,87.11
2023-05-12T03:16:53.194Z,87.52
2023-05-12T03:19:22.610Z,87.57
2023-05-12T03:21:52.014Z,87.53
2023-05-12T03:24:21.449Z,87.75
2023-05-12T03:26:51.116Z,87.45
2023-05-12T03:29:23.445Z,87.33
2023-05-12T03:31:52.981Z,87.23
2023-05-12T03:34:22.564Z,86.97
2023-05-12T03:36:53.144Z,87.20
2023-05-12T03:39:24.821Z,87.51
2023-05-12T03:41:55.698Z,88.19
2023-05-12T03:44:28.924Z,87.62
2023-05-12T03:47:00.495Z,87.55
2023-05-12T03:49:30.634Z,87.39
2023-05-12T03:52:01.084Z,87.17
2023-05-12T03:54:31.024Z,87.71
2023-05-12T03:57:00.856Z,87.15
2023-05-12T03:59:33.986Z,87.65
2023-05-12T04:02:04.131Z,87.25
2023-05-12T04:04:34.077Z,87.48
2023-05-12T04:07:04.029Z,87.13
2023-05-12T04:09:34.800Z,87.71
2023-05-12T04:12:04.990Z,87.35
2023-05-12T04:14:42.803Z,87.76
2023-05-12T04:17:13.106Z,87.27
2023-05-12T04:19:43.106Z,87.22
2023-05-12T04:22:12.769Z,87.43
2023-05-12T04:24:43.756Z,87.16
2023-05-12T04:27:13.299Z,87.60
2023-05-12T04:29:45.415Z,87.65
2023-05-12T04:32:15.111Z,87.83
2023-05-12T04:34:44.628Z,88.86
2023-05-12T04:37:14.214Z,88.20
2023-05-12T04:39:43.710Z,88.06
2023-05-12T04:42:13.458Z,88.15
2023-05-12T04:44:49.021Z,88.07
2023-05-12T04:47:18.645Z,87.91
2023-05-12T04:49:48.347Z,87.74
2023-05-12T04:52:17.934Z,88.12
2023-05-12T04:54:48.586Z,88.14
2023-05-12T04:57:18.137Z,88.65
2023-05-12T04:59:50.340Z,89.35
2023-05-12T05:02:19.784Z,89.63
2023-05-12T05:04:49.197Z,88.74
2023-05-12T05:07:18.546Z,88.33
2023-05-12T05:09:47.964Z,87.69
2023-05-12T05:12:17.466Z,88.29
2023-05-12T05:14:46.868Z,90.42
2023-05-12T05:17:18.974Z,89.78
2023-05-12T05:19:57.299Z,90.31
2023-05-12T05:22:28.177Z,90.95
2023-05-12T05:24:57.545Z,89.81
2023-05-12T05:27:27.066Z,88.74
2023-05-12T05:29:56.698Z,88.44
2023-05-12T05:32:28.742Z,91.29
2023-05-12T05:34:58.124Z,90.46
2023-05-12T05:37:27.932Z,90.76
2023-05-12T05:39:57.271Z,92.08
2023-05-12T05:42:26.724Z,90.97
2023-05-12T05:44:56.205Z,92.20
2023-05-12T05:47:28.559Z,91.35
2023-05-12T05:49:57.983Z,91.75
2023-05-12T05:52:27.286Z,91.85
2023-05-12T05:54:59.200Z,90.69
2023-05-12T05:57:28.739Z,93.14
2023-05-12T05:59:58.098Z,92.39
2023-05-12T06:02:30.123Z,92.79
2023-05-12T06:05:00.259Z,94.02
2023-05-12T06:07:29.620Z,92.49
2023-05-12T06:09:59.057Z,91.00
2023-05-12T06:12:28.413Z,91.65
2023-05-12T06:14:57.720Z,91.33
2023-05-12T06:17:32.072Z,91.09
2023-05-12T06:20:02.034Z,92.02
2023-05-12T06:22:31.392Z,89.86
2023-05-12T06:25:00.756Z,90.92
2023-05-12T06:27:30.139Z,91.45
2023-05-12T06:29:59.601Z,92.65
2023-05-12T06:32:31.646Z,92.97
2023-05-12T06:35:01.245Z,92.20
2023-05-12T06:37:30.657Z,92.43
2023-05-12T06:39:59.968Z,92.69
2023-05-12T06:42:29.336Z,91.48
2023-05-12T06:45:01.045Z,91.47
2023-05-12T06:47:33.168Z,91.78
2023-05-12T06:50:02.579Z,93.22
2023-05-12T06:52:31.878Z,94.22
2023-05-12T06:55:01.261Z,93.86
2023-05-12T06:57:30.637Z,93.99
2023-05-12T07:00:00.720Z,93.99
2023-05-12T07:02:30.409Z,94.42
2023-05-12T07:05:03.906Z,92.49
2023-05-12T07:07:34.430Z,91.99
2023-05-12T07:10:04.132Z,92.30
2023-05-12T07:12:33.878Z,92.44
2023-05-12T07:15:03.551Z,92.45
2023-05-12T07:17:32.900Z,93.77
2023-05-12T07:20:05.819Z,93.01
2023-05-12T07:22:36.626Z,93.20
2023-05-12T07:25:09.050Z,90.59
2023-05-12T07:27:38.396Z,91.87
2023-05-12T07:30:13.371Z,89.93
2023-05-12T07:32:43.219Z,91.93
2023-05-12T07:35:15.289Z,88.29
2023-05-12T07:37:44.665Z,89.85
2023-05-12T07:40:14.572Z,90.02
2023-05-12T07:42:44.136Z,88.25
2023-05-12T07:45:14.150Z,88.22
2023-05-12T07:47:44.530Z,89.05
2023-05-12T07:50:19.017Z,88.82
2023-05-12T07:52:52.931Z,88.41
2023-05-12T07:55:23.805Z,89.66
2023-05-12T07:57:56.375Z,88.06
2023-05-12T08:00:25.993Z,87.02
2023-05-12T08:02:55.829Z,86.84
2023-05-12T08:05:28.576Z,85.82
2023-05-12T08:07:57.955Z,85.95
2023-05-12T08:10:31.338Z,85.28
2023-05-12T08:13:00.717Z,83.27
2023-05-12T08:15:30.121Z,83.46
2023-05-12T08:17:59.498Z,84.40
2023-05-12T08:20:31.683Z,85.50
2023-05-12T08:23:01.099Z,83.79
2023-05-12T08:25:30.984Z,84.55
2023-05-12T08:28:00.399Z,81.63
2023-05-12T08:30:30.158Z,82.61
2023-05-12T08:32:59.976Z,81.23
2023-05-12T08:35:32.962Z,81.94
2023-05-12T08:38:05.182Z,81.69
2023-05-12T08:40:37.689Z,83.58
2023-05-12T08:43:15.489Z,81.46
2023-05-12T08:45:45.358Z,82.46
2023-05-12T08:48:16.273Z,81.54
2023-05-12T08:50:52.585Z,82.52
2023-05-12T08:53:24.003Z,80.05
2023-05-12T08:57:08.161Z,78.68
2023-05-12T08:58:46.689Z,79.36
2023-05-12T09:01:16.799Z,76.96
2023-05-12T09:03:46.802Z,73.92
2023-05-12T09:06:19.590Z,75.24
2023-05-12T09:08:48.986Z,74.20
2023-05-12T09:11:20.059Z,73.09
2023-05-12T09:13:55.650Z,73.83
2023-05-12T09:16:27.022Z,72.88
2023-05-12T09:18:58.518Z,73.22
2023-05-12T09:21:31.125Z,73.57
2023-05-12T09:24:05.914Z,68.78
2023-05-12T09:26:47.969Z,70.18
2023-05-12T09:29:29.982Z,67.84
2023-05-12T09:32:02.355Z,66.56
2023-05-12T09:34:33.397Z,68.58
2023-05-12T09:37:08.678Z,66.59
2023-05-12T09:39:39.339Z,66.80
2023-05-12T09:42:13.708Z,65.21
2023-05-12T09:44:43.490Z,68.67
2023-05-12T09:47:15.598Z,65.36
2023-05-12T09:49:49.384Z,65.79
2023-05-12T09:52:23.533Z,66.16
2023-05-12T09:54:52.923Z,63.57
2023-05-12T09:57:24.165Z,59.54
2023-05-12T09:59:54.641Z,61.40
2023-05-12T10:02:24.731Z,61.84
2023-05-12T10:05:05.055Z,60.45
2023-05-12T10:07:38.276Z,56.97
2023-05-12T10:10:10.203Z,60.34
2023-05-12T10:12:40.222Z,62.43
2023-05-12T10:15:12.936Z,60.09
2023-05-12T10:17:44.022Z,62.40
2023-05-12T10:20:15.903Z,63.86
2023-05-12T10:25:20.541Z,60.91
2023-05-12T10:27:52.544Z,61.03
2023-05-12T10:30:22.249Z,60.53
2023-05-12T10:32:53.096Z,62.42
2023-05-12T10:35:22.675Z,58.07
2023-05-12T10:37:54.684Z,57.82
2023-05-12T10:40:28.133Z,61.09
2023-05-12T10:43:01.582Z,60.73
2023-05-12T10:45:31.336Z,57.22
2023-05-12T10:48:10.502Z,56.40
2023-05-12T10:50:40.139Z,56.53
2023-05-12T10:53:14.263Z,57.14
2023-05-12T10:55:50.463Z,56.25
2023-05-12T10:58:20.938Z,56.85
2023-05-12T11:00:55.007Z,55.84
2023-05-12T11:03:28.516Z,54.52
2023-05-12T11:06:03.345Z,57.37
2023-05-12T11:08:35.937Z,52.91
2023-05-12T11:11:06.388Z,53.92
2023-05-12T11:13:35.829Z,53.64
2023-05-12T11:16:05.208Z,55.46
2023-05-12T11:18:34.615Z,53.80
2023-05-12T11:21:12.520Z,51.94
2023-05-12T11:23:44.589Z,52.17
2023-05-12T11:26:19.983Z,53.35
2023-05-12T11:28:49.386Z,52.52
2023-05-12T11:31:21.479Z,52.79
2023-05-12T11:34:01.299Z,50.98
2023-05-12T11:36:42.373Z,51.51
2023-05-12T11:39:19.353Z,51.26
2023-05-12T11:41:48.824Z,52.12
2023-05-12T11:44:20.862Z,52.22
2023-05-12T11:46:57.919Z,52.06
2023-05-12T11:49:28.132Z,50.12
2023-05-12T11:51:59.181Z,50.06
2023-05-12T11:54:32.563Z,50.67
2023-05-12T11:57:01.875Z,50.31
2023-05-12T11:59:32.748Z,52.60
2023-05-12T12:02:03.671Z,50.04
2023-05-12T12:04:37.370Z,51.09
2023-05-12T12:07:08.142Z,50.55
2023-05-12T12:09:41.439Z,50.60
2023-05-12T12:12:13.671Z,50.51
2023-05-12T12:14:44.144Z,50.83
2023-05-12T12:17:13.566Z,50.72
2023-05-12T12:19:42.993Z,50.57
2023-05-12T12:22:12.356Z,50.05
2023-05-12T12:24:44.269Z,50.45
2023-05-12T12:27:13.562Z,50.48
2023-05-12T12:29:42.862Z,50.17
2023-05-12T12:32:12.414Z,50.20
2023-05-12T12:34:41.884Z,49.83
2023-05-12T12:37:11.255Z,50.50
2023-05-12T12:39:40.776Z,50.85
2023-05-12T12:42:13.439Z,50.95
2023-05-12T12:44:42.791Z,50.97
2023-05-12T12:47:12.286Z,51.58
2023-05-12T12:49:41.672Z,48.53
2023-05-12T12:52:11.526Z,48.72
2023-05-12T12:54:40.824Z,49.59
2023-05-12T12:57:12.750Z,50.88
2023-05-12T12:59:42.070Z,51.42
2023-05-12T13:02:11.639Z,50.86
2023-05-12T13:04:41.069Z,51.79
2023-05-12T13:07:10.370Z,50.25
2023-05-12T13:09:39.741Z,49.88
2023-05-12T13:12:12.700Z,50.49
2023-05-12T13:14:42.007Z,50.31
2023-05-12T13:17:11.342Z,49.15
2023-05-12T13:19:40.749Z,48.93
2023-05-12T13:22:10.196Z,49.93
2023-05-12T13:24:39.528Z,49.81
2023-05-12T13:27:09.539Z,50.49
2023-05-12T13:29:42.371Z,50.72
2023-05-12T13:32:11.913Z,49.71
2023-05-12T13:34:41.826Z,48.67
2023-05-12T13:37:11.288Z,49.63
2023-05-12T13:39:40.640Z,50.41
2023-05-12T13:42:10.247Z,50.54
2023-05-12T13:44:42.563Z,51.80
2023-05-12T13:47:12.176Z,49.63
2023-05-12T13:49:41.474Z,49.82
2023-05-12T13:52:11.115Z,49.58
2023-05-12T13:54:40.409Z,49.93
2023-05-12T13:57:10.191Z,51.46
2023-05-12T13:59:42.085Z,50.90
2023-05-12T14:02:13.835Z,49.57
2023-05-12T14:04:43.308Z,49.87
2023-05-12T14:07:12.746Z,49.68
2023-05-12T14:09:42.130Z,49.99
2023-05-12T14:12:12.020Z,50.39
2023-05-12T14:14:49.625Z,49.49
2023-05-12T14:17:19.244Z,49.60
2023-05-12T14:19:48.679Z,49.61
2023-05-12T14:22:25.640Z,50.74
2023-05-12T14:24:56.057Z,48.82
2023-05-12T14:27:25.364Z,49.22
2023-05-12T14:29:57.436Z,48.35
2023-05-12T14:32:26.873Z,49.43
2023-05-12T14:34:56.197Z,48.54
2023-05-12T14:37:25.518Z,49.21
2023-05-12T14:39:56.784Z,49.12
2023-05-12T14:42:28.723Z,49.47
2023-05-12T14:45:00.654Z,49.31
2023-05-12T14:47:30.011Z,48.51
2023-05-12T14:49:59.336Z,48.59
2023-05-12T14:52:28.695Z,48.72
2023-05-12T14:54:58.021Z,48.86
2023-05-12T14:57:27.542Z,49.43
2023-05-12T14:59:58.827Z,49.41
2023-05-12T15:02:31.213Z,49.40
2023-05-12T15:05:00.600Z,49.13
2023-05-12T15:07:29.954Z,49.26
2023-05-12T15:09:59.288Z,48.52
2023-05-12T15:12:28.695Z,47.93
2023-05-12T15:15:01.120Z,47.81
2023-05-12T15:17:33.447Z,48.75
2023-05-12T15:20:03.824Z,49.12
2023-05-12T15:22:33.173Z,49.14
2023-05-12T15:25:04.440Z,48.63
2023-05-12T15:27:35.193Z,48.20
2023-05-12T15:30:04.559Z,48.54
2023-05-12T15:32:36.552Z,47.86
2023-05-12T15:35:06.075Z,48.39
2023-05-12T15:37:35.514Z,48.14
2023-05-12T15:40:05.390Z,47.79
2023-05-12T15:42:34.749Z,48.26
2023-05-12T15:45:04.330Z,47.58
2023-05-12T15:47:36.336Z,48.40
2023-05-12T15:50:06.140Z,49.08
2023-05-12T15:52:35.648Z,48.92
2023-05-12T15:55:04.977Z,48.33
2023-05-12T15:57:34.275Z,48.04
2023-05-12T16:00:03.849Z,47.85
2023-05-12T16:02:35.940Z,48.19
2023-05-12T16:05:06.007Z,48.29
2023-05-12T16:07:35.419Z,49.06
2023-05-12T16:10:05.268Z,48.91
2023-05-12T16:12:34.856Z,49.35
2023-05-12T16:15:05.086Z,48.71
2023-05-12T16:17:37.051Z,49.19
2023-05-12T16:20:07.922Z,48.60
2023-05-12T16:22:37.823Z,48.61
2023-05-12T16:25:08.967Z,49.09
2023-05-12T16:27:38.994Z,49.63
2023-05-12T16:30:09.637Z,49.35
2023-05-12T16:32:42.293Z,49.75
2023-05-12T16:35:12.340Z,49.40
2023-05-12T16:37:41.733Z,49.52
2023-05-12T16:40:12.236Z,49.94
2023-05-12T16:42:41.819Z,49.44
2023-05-12T16:45:13.556Z,50.19
2023-05-12T16:47:45.760Z,50.61
2023-05-12T16:50:15.196Z,52.27
2023-05-12T16:52:44.514Z,52.86
2023-05-12T16:55:14.204Z,53.93
2023-05-12T16:57:43.747Z,53.68
2023-05-12T17:00:14.649Z,53.17
2023-05-12T17:02:46.694Z,54.09
2023-05-12T17:05:16.116Z,54.03
2023-05-12T17:07:46.068Z,53.39
2023-05-12T17:10:15.385Z,53.21
2023-05-12T17:12:44.690Z,51.72
2023-05-12T17:15:14.760Z,52.03
2023-05-12T17:17:46.693Z,51.22
2023-05-12T17:20:16.170Z,50.64
2023-05-12T17:22:50.409Z,50.35
2023-05-12T17:25:20.038Z,50.28
2023-05-12T17:27:49.788Z,50.73
2023-05-12T17:30:19.794Z,51.17
2023-05-12T17:32:51.882Z,50.65
2023-05-12T17:35:21.474Z,50.68
2023-05-12T17:37:55.525Z,50.96
2023-05-12T17:40:25.434Z,51.38
2023-05-12T17:42:54.746Z,50.89
2023-05-12T17:45:24.292Z,51.34
2023-05-12T17:47:56.827Z,51.13
2023-05-12T17:50:28.123Z,51.28
2023-05-12T17:52:58.170Z,51.41
2023-05-12T17:55:27.638Z,52.39
2023-05-12T17:57:57.221Z,53.75
2023-05-12T18:00:26.788Z,54.84
2023-05-12T18:02:58.755Z,54.76
2023-05-12T18:05:28.555Z,55.92
2023-05-12T18:07:57.848Z,55.22
2023-05-12T18:10:27.342Z,55.99
2023-05-12T18:12:56.885Z,56.06
2023-05-12T18:15:28.047Z,55.81
2023-05-12T18:18:00.815Z,55.56
2023-05-12T18:20:30.219Z,56.36
2023-05-12T18:22:59.531Z,56.68
2023-05-12T18:25:28.867Z,56.53
2023-05-12T18:27:58.236Z,56.47
2023-05-12T18:30:27.597Z,56.87
2023-05-12T18:32:57.059Z,56.50
2023-05-12T18:35:29.061Z,57.08
2023-05-12T18:37:58.374Z,57.25
2023-05-12T18:40:27.714Z,57.33
2023-05-12T18:42:57.318Z,57.03
2023-05-12T18:45:26.616Z,57.15
2023-05-12T18:47:56.021Z,56.97
2023-05-12T18:50:25.522Z,57.67
2023-05-12T18:52:57.453Z,57.72
2023-05-12T18:55:26.790Z,57.35
2023-05-12T18:57:56.095Z,57.24
2023-05-12T19:00:27.673Z,57.71
2023-05-12T19:02:57.016Z,57.71
2023-05-12T19:05:26.432Z,58.00
2023-05-12T19:07:58.420Z,57.56
2023-05-12T19:10:27.770Z,57.75
2023-05-12T19:12:57.661Z,57.82
2023-05-12T19:15:27.083Z,57.54
2023-05-12T19:17:56.424Z,57.59
2023-05-12T19:20:25.873Z,57.91
2023-05-12T19:22:59.814Z,58.16
2023-05-12T19:25:29.202Z,57.83
2023-05-12T19:27:58.502Z,57.88
2023-05-12T19:30:28.574Z,58.43
2023-05-12T19:32:57.989Z,58.66
2023-05-12T19:35:27.393Z,58.82
2023-05-12T19:37:59.279Z,58.46
2023-05-12T19:40:28.976Z,58.76
2023-05-12T19:42:58.295Z,58.78
2023-05-12T19:45:27.680Z,58.34
2023-05-12T19:47:59.210Z,58.08
2023-05-12T19:50:28.592Z,58.65
2023-05-12T19:53:00.525Z,58.95
2023-05-12T19:55:30.304Z,58.78
2023-05-12T19:58:03.253Z,58.78
2023-05-12T20:00:32.588Z,59.30
2023-05-12T20:03:02.161Z,59.34
2023-05-12T20:05:32.030Z,59.63
2023-05-12T20:08:03.933Z,60.32
2023-05-12T20:10:33.660Z,60.06
2023-05-12T20:13:04.565Z,60.58
2023-05-12T20:15:34.379Z,60.86
2023-05-12T20:18:03.756Z,60.68
2023-05-12T20:20:33.236Z,60.72
2023-05-12T20:23:05.148Z,59.56
2023-05-12T20:25:36.339Z,60.18
2023-05-12T20:28:07.138Z,60.39
2023-05-12T20:30:37.575Z,60.03
2023-05-12T20:33:07.102Z,60.02
2023-05-12T20:35:36.469Z,60.63
2023-05-12T20:38:10.800Z,61.20
2023-05-12T20:40:42.192Z,60.83
2023-05-12T20:43:13.603Z,60.92
2023-05-12T20:45:44.351Z,60.46
2023-05-12T20:48:13.889Z,60.95
2023-05-12T20:50:46.181Z,60.44
2023-05-12T20:53:18.247Z,61.43
2023-05-12T20:55:47.563Z,60.57
2023-05-12T20:58:17.017Z,61.22
2023-05-12T21:00:46.528Z,60.55
2023-05-12T21:03:17.330Z,61.17
2023-05-12T21:05:49.400Z,61.05
2023-05-12T21:08:21.358Z,60.76
2023-05-12T21:10:51.165Z,60.99
2023-05-12T21:13:20.720Z,61.26
2023-05-12T21:15:50.036Z,61.58
2023-05-12T21:18:19.434Z,61.52
2023-05-12T21:20:48.789Z,61.65
2023-05-12T21:23:20.679Z,61.32
2023-05-12T21:25:50.197Z,61.97
2023-05-12T21:28:19.500Z,61.81
2023-05-12T21:30:48.826Z,61.85
2023-05-12T21:33:18.154Z,61.56
2023-05-12T21:35:49.878Z,61.62
2023-05-12T21:38:21.990Z,61.96
2023-05-12T21:40:52.728Z,61.37
2023-05-12T21:43:22.061Z,61.36
2023-05-12T21:45:51.972Z,61.37
2023-05-12T21:48:21.634Z,60.88
2023-05-12T21:51:00.048Z,60.82
2023-05-12T21:53:32.447Z,60.84
2023-05-12T21:56:03.696Z,60.86
2023-05-12T21:58:33.335Z,60.58
2023-05-12T22:01:02.721Z,61.51
2023-05-12T22:03:33.047Z,61.33
2023-05-12T22:06:03.831Z,60.77
2023-05-12T22:08:35.828Z,61.16
2023-05-12T22:11:05.666Z,61.27
2023-05-12T22:13:35.017Z,60.70
2023-05-12T22:16:04.506Z,60.85
2023-05-12T22:18:33.977Z,60.82
2023-05-12T22:21:03.732Z,60.48
2023-05-12T22:23:35.950Z,60.67
2023-05-12T22:26:05.305Z,59.72
2023-05-12T22:28:34.608Z,60.01
2023-05-12T22:31:04.049Z,61.18
2023-05-12T22:33:33.817Z,60.16
2023-05-12T22:36:03.751Z,60.79
2023-05-12T22:38:35.653Z,61.37
2023-05-12T22:41:05.004Z,60.77
2023-05-12T22:43:34.320Z,61.15
2023-05-12T22:46:07.850Z,61.54
2023-05-12T22:48:39.448Z,61.23
2023-05-12T22:51:09.209Z,61.54
2023-05-12T22:53:41.721Z,61.22
2023-05-12T22:56:11.257Z,61.01
2023-05-12T22:58:40.588Z,61.24
2023-05-12T23:01:10.074Z,62.27
2023-05-12T23:03:39.427Z,61.90
2023-05-12T23:06:09.115Z,62.07
2023-05-12T23:08:40.983Z,61.87
2023-05-12T23:11:11.949Z,62.28
2023-05-12T23:13:41.236Z,62.67
2023-05-12T23:16:10.997Z,61.91
2023-05-12T23:18:40.353Z,61.62
2023-05-12T23:21:09.723Z,61.12
2023-05-12T23:23:41.690Z,61.42
2023-05-12T23:26:12.181Z,61.88
2023-05-12T23:28:41.519Z,61.88
2023-05-12T23:31:10.821Z,61.83
2023-05-12T23:33:40.238Z,61.61
2023-05-12T23:36:10.598Z,60.99
2023-05-12T23:38:42.605Z,61.60
2023-05-12T23:41:13.357Z,61.76
2023-05-12T23:43:42.699Z,61.53
2023-05-12T23:46:12.361Z,61.91
2023-05-12T23:48:41.900Z,62.09
2023-05-12T23:51:11.354Z,61.63
2023-05-12T23:53:43.263Z,61.01
2023-05-12T23:56:12.634Z,61.04
2023-05-12T23:58:42.050Z,60.66
